Time;durP1;ratioP1;P1;durP2;ratioP2;P2;SDS_P1;SDS_P2;PMS_P1;PMS_P2;Temp;Humidity;BMP_temperature;BMP_pressure;BME280_temperature;BME280_humidity;BME280_pressure;Samples;Min_cycle;Max_cycle;Signal;HPM_P1;HPM_P2
2021/03/26 00:00:15;;;;;;;21.67;7.57;;;9.30;52.20;;;;;;5082538;28;20035;-78
2021/03/26 00:02:41;;;;;;;12.68;7.18;;;9.30;52.50;;;;;;5078258;28;20028;-77
2021/03/26 00:05:11;;;;;;;16.13;8.00;;;9.30;52.20;;;;;;5058158;28;20017;-78
2021/03/26 00:07:37;;;;;;;14.60;8.13;;;9.20;52.30;;;;;;5085193;28;20040;-77
2021/03/26 00:10:12;;;;;;;18.35;9.80;;;9.20;52.20;;;;;;5073417;28;20032;-78
2021/03/26 00:12:38;;;;;;;18.52;9.95;;;9.20;52.30;;;;;;5079513;28;20025;-77
2021/03/26 00:15:07;;;;;;;17.35;8.93;;;9.20;52.30;;;;;;5064963;28;20035;-78
2021/03/26 00:17:33;;;;;;;21.27;8.65;;;9.20;52.40;;;;;;5077025;28;20035;-77
2021/03/26 00:19:59;;;;;;;21.65;8.88;;;9.20;52.30;;;;;;5083450;28;20032;-78
2021/03/26 00:22:26;;;;;;;13.13;7.75;;;9.20;52.50;;;;;;5059656;28;20371;-78
2021/03/26 00:24:52;;;;;;;15.25;8.35;;;9.20;52.60;;;;;;5054081;28;20428;-78
2021/03/26 00:27:19;;;;;;;15.60;8.93;;;9.20;52.80;;;;;;5088603;28;20098;-77
2021/03/26 00:29:44;;;;;;;17.20;8.45;;;9.20;53.00;;;;;;5077609;28;20013;-77
2021/03/26 00:32:10;;;;;;;11.75;7.05;;;9.10;52.90;;;;;;5071040;28;20021;-78
2021/03/26 00:34:36;;;;;;;12.00;6.90;;;9.10;52.70;;;;;;5065459;28;20060;-77
2021/03/26 00:37:02;;;;;;;13.32;7.38;;;9.10;53.20;;;;;;5051463;28;20040;-78
2021/03/26 00:39:28;;;;;;;12.98;7.40;;;9.10;52.70;;;;;;5052842;28;20100;-78
2021/03/26 00:41:54;;;;;;;10.50;6.03;;;9.10;52.60;;;;;;5055081;28;20128;-78
2021/03/26 00:44:19;;;;;;;12.55;6.65;;;9.10;52.70;;;;;;5053031;28;20024;-77
2021/03/26 00:46:45;;;;;;;12.85;5.93;;;9.00;52.60;;;;;;5053797;28;20017;-77
2021/03/26 00:49:12;;;;;;;13.20;6.40;;;9.00;53.20;;;;;;5072066;28;20032;-78
2021/03/26 00:51:38;;;;;;;16.38;8.50;;;9.00;52.60;;;;;;5053375;28;20057;-78
2021/03/26 00:54:06;;;;;;;13.13;6.88;;;9.00;52.90;;;;;;5053279;28;20099;-78
2021/03/26 00:56:32;;;;;;;12.30;6.07;;;9.00;52.90;;;;;;5053561;28;20021;-78
2021/03/26 00:58:57;;;;;;;12.23;6.22;;;8.90;52.70;;;;;;5053543;28;20032;-78
2021/03/26 01:01:24;;;;;;;15.60;7.72;;;8.90;52.70;;;;;;5053448;28;20101;-78
2021/03/26 01:03:49;;;;;;;13.93;7.38;;;8.90;52.80;;;;;;5056463;28;20025;-78
2021/03/26 01:06:16;;;;;;;14.40;7.18;;;8.90;53.30;;;;;;5053900;28;20356;-77
2021/03/26 01:08:42;;;;;;;18.52;7.15;;;8.90;52.70;;;;;;5053035;28;20029;-77
2021/03/26 01:11:20;;;;;;;11.45;6.35;;;8.80;52.70;;;;;;5051276;28;20037;-78
2021/03/26 01:13:46;;;;;;;13.15;7.05;;;8.80;52.80;;;;;;5052359;28;20017;-78
2021/03/26 01:16:14;;;;;;;11.57;6.32;;;8.80;52.80;;;;;;5052215;28;20032;-77
2021/03/26 01:18:43;;;;;;;10.95;6.20;;;8.80;52.80;;;;;;5071226;28;20487;-77
2021/03/26 01:21:16;;;;;;;14.57;7.18;;;8.70;52.80;;;;;;5070167;28;20025;-78
2021/03/26 01:23:43;;;;;;;18.48;7.53;;;8.70;52.90;;;;;;5052159;28;20151;-78
2021/03/26 01:26:09;;;;;;;18.52;8.60;;;8.70;52.90;;;;;;5052249;28;20033;-78
2021/03/26 01:28:35;;;;;;;13.00;7.82;;;8.60;53.10;;;;;;5052316;28;20389;-77
2021/03/26 01:31:01;;;;;;;13.63;9.00;;;8.60;53.20;;;;;;5054067;28;20024;-77
2021/03/26 01:33:27;;;;;;;13.88;8.82;;;8.60;53.40;;;;;;5070636;28;20031;-78
2021/03/26 01:35:54;;;;;;;14.70;7.50;;;8.60;53.50;;;;;;5069665;28;20385;-77
2021/03/26 01:38:20;;;;;;;10.52;6.10;;;8.50;53.30;;;;;;5072102;28;20025;-78
2021/03/26 01:40:53;;;;;;;12.85;6.55;;;8.50;53.20;;;;;;5071469;28;20374;-77
2021/03/26 01:43:20;;;;;;;14.15;7.38;;;8.50;53.40;;;;;;5056972;28;20100;-78
2021/03/26 01:45:46;;;;;;;17.17;8.57;;;8.50;53.30;;;;;;5070755;28;20024;-78
2021/03/26 01:48:19;;;;;;;13.80;7.57;;;8.40;53.40;;;;;;5071271;28;20035;-78
2021/03/26 01:50:45;;;;;;;13.07;7.13;;;8.40;53.70;;;;;;5070264;28;20124;-77
2021/03/26 01:53:11;;;;;;;13.85;7.30;;;8.40;53.50;;;;;;5072104;28;20036;-78
2021/03/26 01:55:42;;;;;;;15.68;8.57;;;8.30;53.40;;;;;;5068818;28;20032;-78
2021/03/26 01:58:09;;;;;;;12.13;6.50;;;8.30;53.60;;;;;;5070657;28;20033;-77
2021/03/26 02:00:47;;;;;;;12.80;6.03;;;8.30;53.50;;;;;;5056729;28;20026;-78
2021/03/26 02:03:19;;;;;;;12.50;6.03;;;8.30;53.70;;;;;;5052066;28;20478;-77
2021/03/26 02:05:46;;;;;;;11.55;6.25;;;8.20;53.50;;;;;;5050462;28;20121;-78
2021/03/26 02:08:14;;;;;;;13.63;6.57;;;8.20;53.50;;;;;;5052103;28;20017;-78
2021/03/26 02:10:43;;;;;;;12.13;6.72;;;8.20;53.60;;;;;;5050644;28;20025;-78
2021/03/26 02:13:26;;;;;;;13.80;7.57;;;8.20;53.70;;;;;;5051682;28;20034;-78
2021/03/26 02:15:54;;;;;;;16.00;7.95;;;8.10;53.80;;;;;;5065865;28;20116;-78
2021/03/26 02:18:25;;;;;;;13.07;7.22;;;8.10;53.90;;;;;;5051612;28;20025;-77
2021/03/26 02:20:58;;;;;;;17.13;7.75;;;8.10;54.00;;;;;;5050686;28;20033;-78
2021/03/26 02:23:26;;;;;;;14.95;7.20;;;8.10;54.00;;;;;;5051486;28;20017;-78
2021/03/26 02:25:55;;;;;;;18.13;8.32;;;8.00;53.90;;;;;;5055183;28;20395;-77
2021/03/26 02:28:21;;;;;;;15.60;8.23;;;8.00;54.10;;;;;;5051697;28;20033;-78
2021/03/26 02:30:51;;;;;;;14.32;7.95;;;8.00;54.40;;;;;;5051436;28;20029;-77
2021/03/26 02:33:18;;;;;;;13.02;7.28;;;8.00;54.40;;;;;;5052061;28;20021;-77
2021/03/26 02:35:48;;;;;;;14.98;7.10;;;8.00;54.30;;;;;;5050512;28;20029;-78
2021/03/26 02:38:20;;;;;;;15.70;7.35;;;7.90;54.40;;;;;;5053270;28;20029;-77
2021/03/26 02:40:54;;;;;;;16.30;8.05;;;7.90;54.40;;;;;;5053380;28;20064;-77
2021/03/26 02:43:42;;;;;;;14.23;7.53;;;7.90;54.40;;;;;;5050168;28;20025;-77
2021/03/26 02:46:13;;;;;;;14.45;7.78;;;7.90;54.60;;;;;;5051948;28;20046;-78
2021/03/26 02:49:05;;;;;;;16.27;8.45;;;7.90;54.60;;;;;;5053919;28;20029;-77
2021/03/26 02:51:46;;;;;;;17.00;8.18;;;7.80;54.80;;;;;;5018970;28;20041;-77
2021/03/26 02:54:27;;;;;;;15.45;8.02;;;7.80;54.90;;;;;;5015248;28;20033;-77
2021/03/26 02:56:58;;;;;;;18.15;8.85;;;7.80;54.90;;;;;;5034844;28;20029;-78
2021/03/26 02:59:32;;;;;;;17.58;8.43;;;7.80;54.90;;;;;;5020016;28;20112;-77
2021/03/26 03:01:59;;;;;;;16.67;6.88;;;7.70;54.90;;;;;;5015176;28;20125;-77
2021/03/26 03:04:39;;;;;;;11.43;6.40;;;7.70;54.70;;;;;;5018532;28;20057;-77
2021/03/26 03:07:15;;;;;;;24.17;9.13;;;7.70;54.70;;;;;;5026138;28;20050;-77
2021/03/26 03:09:44;;;;;;;14.52;7.93;;;7.70;54.80;;;;;;5031338;28;20138;-77
2021/03/26 03:12:27;;;;;;;16.98;7.47;;;7.70;54.90;;;;;;5030807;28;20033;-77
2021/03/26 03:15:19;;;;;;;13.52;7.30;;;7.60;54.90;;;;;;5014427;28;20088;-77
2021/03/26 03:17:51;;;;;;;14.55;7.30;;;7.60;54.80;;;;;;5019530;28;20065;-77
2021/03/26 03:20:24;;;;;;;20.58;8.13;;;7.60;54.70;;;;;;5034782;28;20025;-77
2021/03/26 03:23:13;;;;;;;17.02;7.35;;;7.60;54.80;;;;;;5019089;28;20080;-77
2021/03/26 03:25:39;;;;;;;16.77;6.70;;;7.60;55.10;;;;;;5024708;28;20087;-77
2021/03/26 03:28:36;;;;;;;24.13;9.38;;;7.60;54.80;;;;;;5022966;28;20022;-77
2021/03/26 03:31:16;;;;;;;18.23;7.88;;;7.50;55.30;;;;;;5034967;28;20036;-77
2021/03/26 03:34:05;;;;;;;14.02;7.25;;;7.50;55.10;;;;;;5047456;28;20111;-77
2021/03/26 03:36:52;;;;;;;15.70;8.20;;;7.50;55.40;;;;;;5038797;28;20033;-77
2021/03/26 03:39:33;;;;;;;22.23;10.02;;;7.50;55.50;;;;;;5026562;28;20026;-77
2021/03/26 03:42:05;;;;;;;15.38;7.88;;;7.50;55.50;;;;;;5023930;28;20443;-78
2021/03/26 03:44:50;;;;;;;26.25;8.10;;;7.50;55.50;;;;;;5015605;28;20479;-78
2021/03/26 03:47:20;;;;;;;17.08;7.07;;;7.50;55.60;;;;;;5015193;28;20026;-78
2021/03/26 03:50:10;;;;;;;18.48;7.38;;;7.50;55.30;;;;;;5021934;28;20040;-78
2021/03/26 03:52:45;;;;;;;32.28;9.05;;;7.50;55.70;;;;;;5054827;28;20102;-78
2021/03/26 03:55:13;;;;;;;20.30;8.85;;;7.40;55.70;;;;;;5054685;28;20025;-78
2021/03/26 03:57:52;;;;;;;22.10;8.55;;;7.40;55.70;;;;;;5054023;28;20036;-77
2021/03/26 04:00:38;;;;;;;14.45;7.43;;;7.40;55.80;;;;;;5054675;28;20021;-78
2021/03/26 04:03:39;;;;;;;19.90;8.30;;;7.40;55.80;;;;;;5053032;28;20037;-78
2021/03/26 04:06:11;;;;;;;16.13;7.03;;;7.40;55.80;;;;;;5052750;28;20393;-79
2021/03/26 04:09:02;;;;;;;17.60;7.80;;;7.40;55.70;;;;;;5054641;28;20043;-78
2021/03/26 04:11:39;;;;;;;13.07;6.70;;;7.40;55.80;;;;;;5053100;28;20029;-78
2021/03/26 04:14:12;;;;;;;19.92;6.80;;;7.30;55.70;;;;;;5053072;28;20116;-78
2021/03/26 04:16:41;;;;;;;18.73;8.38;;;7.30;56.20;;;;;;5054448;28;20430;-78
2021/03/26 04:19:45;;;;;;;16.13;8.00;;;7.30;55.80;;;;;;5054087;28;20056;-78
2021/03/26 04:22:19;;;;;;;16.02;7.45;;;7.30;56.00;;;;;;5071934;28;20036;-78
2021/03/26 04:25:26;;;;;;;14.75;7.25;;;7.30;55.80;;;;;;5060803;28;20496;-78
2021/03/26 04:28:03;;;;;;;13.25;7.68;;;7.30;56.00;;;;;;5031397;28;20041;-78
2021/03/26 04:30:38;;;;;;;13.20;6.43;;;7.30;56.20;;;;;;5031793;28;20046;-78
2021/03/26 04:33:04;;;;;;;17.02;8.02;;;7.30;56.20;;;;;;5032098;28;20418;-78
2021/03/26 04:35:30;;;;;;;15.32;8.13;;;7.30;56.10;;;;;;5031086;28;20121;-78
2021/03/26 04:38:23;;;;;;;13.07;7.10;;;7.30;56.10;;;;;;5031365;28;20136;-78
2021/03/26 04:40:57;;;;;;;15.45;7.93;;;7.30;56.20;;;;;;5031738;28;20527;-78
2021/03/26 04:43:46;;;;;;;15.73;7.57;;;7.30;56.20;;;;;;5015087;28;20046;-78
2021/03/26 04:46:29;;;;;;;16.00;7.47;;;7.20;56.20;;;;;;5015255;28;20025;-78
2021/03/26 04:48:55;;;;;;;13.63;7.18;;;7.20;56.20;;;;;;5014887;28;20033;-78
2021/03/26 04:51:31;;;;;;;13.52;6.78;;;7.20;56.10;;;;;;5031184;28;20061;-77
2021/03/26 04:54:24;;;;;;;12.80;7.43;;;7.20;56.20;;;;;;5014957;28;20494;-78
2021/03/26 04:56:58;;;;;;;14.73;7.57;;;7.20;56.30;;;;;;5012745;28;20209;-78
2021/03/26 04:59:46;;;;;;;15.75;8.13;;;7.20;56.40;;;;;;5011561;28;20104;-78
2021/03/26 05:02:16;;;;;;;19.23;7.70;;;7.20;56.40;;;;;;5024473;28;20077;-77
2021/03/26 05:04:43;;;;;;;12.15;6.18;;;7.20;56.40;;;;;;5053235;28;20405;-78
2021/03/26 05:07:18;;;;;;;17.52;8.25;;;7.20;56.30;;;;;;5052135;28;20551;-78
2021/03/26 05:09:48;;;;;;;15.75;7.47;;;7.20;56.60;;;;;;5053081;28;20021;-78
2021/03/26 05:12:23;;;;;;;16.13;7.00;;;7.20;56.50;;;;;;5054400;28;20029;-78
2021/03/26 05:14:59;;;;;;;16.52;8.70;;;7.20;56.50;;;;;;5072947;28;20035;-78
2021/03/26 05:17:43;;;;;;;16.52;8.95;;;7.20;56.70;;;;;;5063854;28;20375;-78
2021/03/26 05:20:28;;;;;;;17.50;8.52;;;7.20;56.70;;;;;;5053181;28;20040;-79
2021/03/26 05:23:11;;;;;;;22.25;9.13;;;7.20;56.80;;;;;;5053162;28;20028;-78
2021/03/26 05:25:46;;;;;;;16.25;8.32;;;7.20;56.90;;;;;;5053035;28;20025;-78
2021/03/26 05:28:18;;;;;;;16.63;8.88;;;7.20;56.80;;;;;;5051732;28;20388;-78
2021/03/26 05:30:46;;;;;;;17.08;8.98;;;7.20;57.10;;;;;;5051836;28;20065;-78
2021/03/26 05:33:34;;;;;;;18.20;7.80;;;7.30;57.50;;;;;;5053012;28;20159;-78
2021/03/26 05:36:12;;;;;;;13.80;8.15;;;7.30;57.60;;;;;;5053131;28;20073;-78
2021/03/26 05:38:46;;;;;;;15.35;7.60;;;7.30;57.60;;;;;;5069731;28;20037;-78
2021/03/26 05:41:33;;;;;;;14.32;7.53;;;7.30;57.50;;;;;;5071396;28;20033;-78
2021/03/26 05:44:22;;;;;;;23.25;9.52;;;7.40;57.50;;;;;;5072691;28;20031;-78
2021/03/26 05:47:03;;;;;;;15.48;7.68;;;7.40;57.90;;;;;;5072563;28;20095;-78
2021/03/26 05:49:53;;;;;;;16.92;9.10;;;7.50;57.80;;;;;;5072628;28;20025;-78
2021/03/26 05:52:41;;;;;;;16.30;7.78;;;7.50;57.90;;;;;;5071107;28;20034;-78
2021/03/26 05:55:22;;;;;;;20.98;7.57;;;7.60;57.80;;;;;;5061693;28;20029;-78
2021/03/26 05:58:11;;;;;;;13.52;7.00;;;7.70;57.80;;;;;;5052743;28;20433;-78
2021/03/26 06:00:51;;;;;;;15.38;7.57;;;7.70;57.80;;;;;;5051732;28;20025;-78
2021/03/26 06:03:36;;;;;;;13.73;7.18;;;7.80;57.70;;;;;;5052741;28;20074;-78
2021/03/26 06:06:32;;;;;;;26.13;9.82;;;7.90;57.70;;;;;;5051608;28;20036;-78
2021/03/26 06:09:19;;;;;;;22.27;9.70;;;7.90;58.00;;;;;;5052592;28;20029;-78
2021/03/26 06:12:04;;;;;;;20.38;9.95;;;8.00;58.00;;;;;;5053400;28;20086;-78
2021/03/26 06:14:35;;;;;;;;;;;8.10;58.10;;;;;;5052345;28;20112;-77
2021/03/26 06:17:23;;;;;;;19.23;9.65;;;8.20;57.60;;;;;;5052646;28;19975;-78
2021/03/26 06:20:04;;;;;;;22.05;8.68;;;8.20;57.90;;;;;;5054294;28;20044;-78
2021/03/26 06:22:48;;;;;;;30.60;10.27;;;8.30;57.90;;;;;;5070653;28;20143;-78
2021/03/26 06:25:32;;;;;;;;;;;8.30;58.00;;;;;;5072696;28;20155;-77
2021/03/26 06:28:22;;;;;;;26.30;9.00;;;8.40;57.50;;;;;;5076390;28;20247;-78
2021/03/26 06:31:15;;;;;;;30.73;10.60;;;8.50;57.60;;;;;;5071257;28;20379;-78
2021/03/26 06:34:20;;;;;;;20.02;11.48;;;8.60;57.60;;;;;;5071517;28;20397;-78
2021/03/26 06:37:02;;;;;;;27.77;11.52;;;8.60;57.50;;;;;;5059921;28;20090;-78
2021/03/26 06:39:40;;;;;;;27.00;10.95;;;8.70;57.40;;;;;;5056111;28;20029;-78
2021/03/26 06:42:24;;;;;;;19.23;10.45;;;8.80;57.30;;;;;;5070997;28;20119;-78
2021/03/26 06:44:50;;;;;;;25.60;10.32;;;8.90;57.20;;;;;;5055727;28;20032;-78
2021/03/26 06:47:35;;;;;;;26.48;13.15;;;9.00;57.00;;;;;;5055779;28;20386;-78
2021/03/26 06:50:17;;;;;;;22.40;10.55;;;9.10;57.10;;;;;;5055937;28;20497;-77
2021/03/26 06:53:07;;;;;;;23.63;11.25;;;9.10;57.00;;;;;;5055973;28;20049;-78
2021/03/26 06:56:05;;;;;;;20.92;10.10;;;9.20;56.90;;;;;;5054597;28;20028;-78
2021/03/26 06:59:08;;;;;;;21.25;11.05;;;9.40;57.00;;;;;;5056034;28;20075;-79
2021/03/26 07:01:53;;;;;;;19.83;10.50;;;9.40;56.90;;;;;;5054551;28;20029;-78
2021/03/26 07:04:49;;;;;;;27.05;11.45;;;9.60;56.90;;;;;;5055655;28;20490;-78
2021/03/26 07:07:27;;;;;;;21.55;10.60;;;9.60;56.50;;;;;;5055740;28;20394;-78
2021/03/26 07:10:17;;;;;;;30.60;11.80;;;9.80;56.40;;;;;;5057123;28;20104;-78
2021/03/26 07:12:58;;;;;;;21.25;10.90;;;9.80;56.20;;;;;;5057298;28;20078;-79
2021/03/26 07:15:36;;;;;;;21.05;10.98;;;9.90;56.10;;;;;;5059606;28;20074;-79
2021/03/26 07:18:26;;;;;;;22.88;10.20;;;10.00;56.00;;;;;;5078279;28;20073;-79
2021/03/26 07:21:27;;;;;;;22.58;10.73;;;10.10;55.90;;;;;;5069038;28;20028;-79
2021/03/26 07:24:01;;;;;;;32.90;11.07;;;10.20;55.80;;;;;;5065061;28;20047;-79
2021/03/26 07:26:44;;;;;;;39.38;13.68;;;10.30;55.70;;;;;;5054565;28;20056;-79
2021/03/26 07:29:30;;;;;;;33.83;11.38;;;10.40;55.60;;;;;;5070826;28;20025;-79
2021/03/26 07:32:18;;;;;;;40.63;12.15;;;10.40;55.40;;;;;;5075813;28;20413;-79
2021/03/26 07:35:20;;;;;;;26.23;11.63;;;10.50;55.30;;;;;;5073904;28;20028;-79
2021/03/26 07:38:20;;;;;;;23.15;10.48;;;10.60;55.20;;;;;;5060383;28;20029;-79
2021/03/26 07:41:08;;;;;;;23.63;10.20;;;10.70;55.20;;;;;;5069884;28;20477;-79
2021/03/26 07:43:52;;;;;;;32.65;13.25;;;10.80;55.00;;;;;;5073942;28;20151;-79
2021/03/26 07:46:36;;;;;;;38.63;13.52;;;10.80;54.80;;;;;;5073250;28;20195;-79
2021/03/26 07:49:28;;;;;;;31.35;12.32;;;10.90;54.80;;;;;;5073553;28;20069;-79
2021/03/26 07:52:22;;;;;;;24.98;12.00;;;11.00;54.70;;;;;;5054689;28;20453;-79
2021/03/26 07:55:09;;;;;;;24.48;11.52;;;11.10;54.60;;;;;;5055182;28;20029;-78
2021/03/26 07:58:11;;;;;;;32.45;13.88;;;11.20;54.60;;;;;;5053621;28;20112;-78
2021/03/26 08:01:08;;;;;;;46.67;14.43;;;11.30;55.10;;;;;;5053834;28;20021;-79
2021/03/26 08:04:08;;;;;;;31.25;15.27;;;11.30;54.20;;;;;;5053500;28;20482;-78
2021/03/26 08:06:52;;;;;;;24.60;13.43;;;11.40;54.10;;;;;;5053739;28;20033;-79
2021/03/26 08:09:38;;;;;;;40.30;17.27;;;11.50;54.00;;;;;;5054415;28;20021;-79
2021/03/26 08:12:33;;;;;;;30.00;15.77;;;11.50;53.70;;;;;;5054464;28;20021;-79
2021/03/26 08:15:11;;;;;;;44.25;18.13;;;11.60;53.60;;;;;;5060351;28;20032;-79
2021/03/26 08:18:01;;;;;;;39.47;19.23;;;11.70;53.40;;;;;;5072923;28;20114;-79
2021/03/26 08:20:26;;;;;;;37.83;17.10;;;11.80;53.40;;;;;;5072186;28;20025;-78
2021/03/26 08:23:12;;;;;;;38.97;17.50;;;11.90;53.20;;;;;;5074260;28;20021;-78
2021/03/26 08:25:54;;;;;;;42.45;18.10;;;11.90;53.00;;;;;;5054072;28;20103;-78
2021/03/26 08:28:39;;;;;;;37.78;18.45;;;12.00;52.80;;;;;;5054121;28;20086;-78
2021/03/26 08:31:40;;;;;;;35.20;17.60;;;12.10;52.70;;;;;;5052445;28;20035;-78
2021/03/26 08:34:48;;;;;;;37.25;18.50;;;12.20;52.70;;;;;;5054203;28;20036;-78
2021/03/26 08:37:23;;;;;;;45.63;20.95;;;12.40;52.60;;;;;;5049376;28;20039;-78
2021/03/26 08:39:53;;;;;;;51.63;21.80;;;12.40;51.90;;;;;;5053814;28;20118;-77
2021/03/26 08:42:38;;;;;;;57.10;21.60;;;12.50;51.90;;;;;;5071249;28;20032;-78
2021/03/26 08:45:09;;;;;;;43.58;19.98;;;12.60;51.50;;;;;;5072542;28;20017;-75
2021/03/26 08:47:56;;;;;;;42.08;19.35;;;12.70;51.40;;;;;;5072362;28;20020;-78
2021/03/26 08:50:42;;;;;;;40.22;20.13;;;12.80;51.20;;;;;;5073412;28;20127;-77
2021/03/26 08:53:22;;;;;;;38.50;20.75;;;12.90;51.20;;;;;;5070489;28;20545;-77
2021/03/26 08:56:26;;;;;;;44.10;20.33;;;13.00;51.00;;;;;;5073218;28;20027;-77
2021/03/26 08:59:20;;;;;;;51.22;22.73;;;13.10;50.80;;;;;;5069161;28;20041;-77
2021/03/26 09:02:18;;;;;;;41.22;20.45;;;13.20;50.70;;;;;;5053512;28;20534;-77
2021/03/26 09:05:11;;;;;;;33.13;17.42;;;13.30;50.50;;;;;;5051590;28;20372;-78
2021/03/26 09:08:16;;;;;;;54.67;23.65;;;13.40;50.20;;;;;;5061799;28;20031;-77
2021/03/26 09:11:00;;;;;;;37.22;17.40;;;13.50;49.80;;;;;;5052753;28;20434;-77
2021/03/26 09:13:35;;;;;;;32.53;16.50;;;13.60;49.90;;;;;;5053037;28;20100;-84
2021/03/26 09:16:59;;;;;;;30.42;15.02;;;13.70;49.70;;;;;;5065639;28;20029;-87
2021/03/26 09:19:33;;;;;;;38.55;18.38;;;13.90;49.80;;;;;;5025052;28;20186;-85
2021/03/26 09:22:12;;;;;;;36.03;17.13;;;14.00;49.10;;;;;;5039268;28;20032;-85
2021/03/26 09:24:49;;;;;;;36.35;16.25;;;14.10;48.80;;;;;;5058213;28;20264;-85
2021/03/26 09:27:21;;;;;;;28.08;13.63;;;14.10;48.30;;;;;;5056401;28;20033;-86
2021/03/26 09:30:29;;;;;;;27.48;13.35;;;14.20;48.50;;;;;;5064463;28;20021;-85
2021/03/26 09:33:01;;;;;;;35.85;16.15;;;14.30;48.20;;;;;;5062706;28;20124;-84
2021/03/26 09:35:35;;;;;;;35.78;16.27;;;14.40;47.40;;;;;;5052690;28;20051;-83
2021/03/26 09:38:09;;;;;;;28.52;13.50;;;14.50;47.40;;;;;;5052400;28;20398;-82
2021/03/26 09:41:04;;;;;;;27.63;12.45;;;14.60;47.50;;;;;;5053418;28;20027;-82
2021/03/26 09:43:33;;;;;;;25.92;12.65;;;14.70;47.60;;;;;;5052355;28;20025;-84
2021/03/26 09:45:59;;;;;;;29.48;14.90;;;14.80;47.30;;;;;;5055605;28;20028;-86
2021/03/26 09:48:31;;;;;;;35.67;15.48;;;14.90;47.10;;;;;;5063373;28;20025;-88
2021/03/26 09:51:20;;;;;;;35.22;14.50;;;15.00;46.90;;;;;;5053261;28;20083;-83
2021/03/26 09:53:47;;;;;;;25.50;12.90;;;15.00;47.00;;;;;;5055666;28;20029;-83
2021/03/26 09:56:23;;;;;;;26.40;12.00;;;15.10;46.80;;;;;;5053269;28;20478;-82
2021/03/26 09:59:33;;;;;;;33.63;13.65;;;15.20;46.30;;;;;;5072702;28;20080;-78
2021/03/26 10:02:23;;;;;;;26.77;12.70;;;15.30;45.80;;;;;;5058851;28;20037;-79
2021/03/26 10:05:12;;;;;;;28.27;11.35;;;15.40;45.40;;;;;;5056366;28;20013;-81
2021/03/26 10:07:51;;;;;;;26.05;12.68;;;15.50;45.20;;;;;;5055462;28;20025;-81
2021/03/26 10:13:02;;;;;;;24.30;11.00;;;15.70;44.40;;;;;;5056950;28;20021;-81
2021/03/26 10:15:36;;;;;;;27.55;10.80;;;15.70;45.00;;;;;;5055421;28;20025;-81
2021/03/26 10:18:06;;;;;;;;;;;15.80;44.40;;;;;;5057341;28;20025;-81
2021/03/26 10:20:48;;;;;;;25.38;12.00;;;15.90;45.50;;;;;;5055581;28;19995;-81
2021/03/26 10:23:30;;;;;;;19.98;11.05;;;16.00;43.80;;;;;;5055093;28;20029;-81
2021/03/26 10:25:58;;;;;;;19.95;10.10;;;16.00;43.00;;;;;;5056621;28;20033;-80
2021/03/26 10:28:32;;;;;;;19.80;9.23;;;16.10;42.80;;;;;;5058511;28;20036;-80
2021/03/26 10:31:38;;;;;;;17.83;8.98;;;16.10;43.20;;;;;;5056687;28;20103;-81
2021/03/26 10:34:07;;;;;;;14.40;7.85;;;16.20;42.90;;;;;;5071042;28;20119;-82
2021/03/26 10:36:39;;;;;;;13.50;7.50;;;16.30;43.30;;;;;;5075979;28;20074;-82
2021/03/26 10:39:10;;;;;;;17.75;7.53;;;16.40;42.70;;;;;;5064258;28;20032;-81
2021/03/26 10:41:49;;;;;;;14.05;7.47;;;16.50;43.30;;;;;;5057383;28;20049;-81
2021/03/26 10:44:21;;;;;;;17.40;8.55;;;16.60;42.60;;;;;;5057107;28;20411;-81
2021/03/26 10:46:53;;;;;;;17.27;8.00;;;16.60;41.90;;;;;;5055959;28;20075;-81
2021/03/26 10:49:23;;;;;;;18.92;9.05;;;16.70;41.60;;;;;;5057268;28;20032;-81
2021/03/26 10:52:02;;;;;;;21.95;9.13;;;16.80;41.40;;;;;;5054649;28;20044;-81
2021/03/26 10:54:48;;;;;;;19.33;8.20;;;16.80;40.30;;;;;;5054262;28;20075;-80
2021/03/26 10:57:44;;;;;;;19.50;8.73;;;16.90;40.40;;;;;;5054261;28;20116;-81
2021/03/26 11:00:22;;;;;;;22.52;8.70;;;17.00;40.40;;;;;;5054434;28;20029;-81
2021/03/26 11:02:59;;;;;;;21.60;8.05;;;17.10;39.80;;;;;;5055562;28;20025;-79
2021/03/26 11:05:25;;;;;;;18.95;8.65;;;17.10;39.70;;;;;;5055544;28;20025;-81
2021/03/26 11:07:57;;;;;;;16.88;8.57;;;17.20;40.20;;;;;;5053185;28;20082;-81
2021/03/26 11:10:31;;;;;;;18.13;7.40;;;17.30;39.60;;;;;;5053392;28;20029;-81
2021/03/26 11:13:02;;;;;;;;;;;17.30;39.50;;;;;;5053817;28;20452;-82
2021/03/26 11:15:34;;;;;;;16.00;8.38;;;17.40;41.10;;;;;;5054604;28;19904;-81
2021/03/26 11:18:27;;;;;;;21.65;8.40;;;17.50;39.60;;;;;;5053050;28;20017;-79
2021/03/26 11:21:21;;;;;;;18.30;8.50;;;17.50;39.40;;;;;;5054396;28;20054;-81
2021/03/26 11:23:57;;;;;;;18.52;8.75;;;17.60;38.70;;;;;;5053459;28;20017;-79
2021/03/26 11:26:29;;;;;;;15.10;7.28;;;17.70;38.50;;;;;;5054346;28;20021;-81
2021/03/26 11:28:54;;;;;;;16.27;7.63;;;17.70;38.50;;;;;;5052852;28;20386;-81
2021/03/26 11:31:46;;;;;;;17.23;8.48;;;17.80;38.90;;;;;;5052992;28;20025;-81
2021/03/26 11:34:40;;;;;;;16.13;7.72;;;17.90;38.10;;;;;;5053220;28;20025;-79
2021/03/26 11:37:23;;;;;;;16.20;8.48;;;18.00;37.80;;;;;;5053453;28;20029;-81
2021/03/26 11:40:06;;;;;;;28.73;9.55;;;18.10;37.80;;;;;;5052952;28;20029;-81
2021/03/26 11:42:37;;;;;;;17.40;8.38;;;18.10;37.50;;;;;;5053077;28;20041;-78
2021/03/26 11:45:26;;;;;;;23.95;9.77;;;18.20;37.50;;;;;;5053962;28;20378;-82
2021/03/26 11:48:00;;;;;;;20.05;9.10;;;18.20;37.50;;;;;;5053955;28;20040;-79
2021/03/26 11:50:31;;;;;;;18.50;9.18;;;18.30;36.80;;;;;;5027280;28;773496;-80
2021/03/26 11:52:57;;;;;;;19.70;9.07;;;18.40;37.00;;;;;;5053766;28;20116;-80
2021/03/26 11:55:29;;;;;;;26.10;10.90;;;18.40;36.70;;;;;;5054947;28;20100;-81
2021/03/26 11:58:28;;;;;;;28.17;11.88;;;18.40;35.80;;;;;;5055227;28;20025;-81
2021/03/26 12:00:58;;;;;;;28.88;10.65;;;18.50;36.00;;;;;;5053527;28;20025;-81
2021/03/26 12:03:56;;;;;;;33.78;13.15;;;18.60;35.90;;;;;;5054699;28;20021;-80
2021/03/26 12:06:39;;;;;;;21.65;10.25;;;18.60;36.00;;;;;;5054734;28;20024;-80
2021/03/26 12:09:20;;;;;;;23.98;10.75;;;18.70;36.40;;;;;;5053355;28;20090;-80
2021/03/26 12:12:05;;;;;;;24.38;10.30;;;18.80;36.00;;;;;;5054657;28;20029;-80
2021/03/26 12:14:54;;;;;;;25.88;11.00;;;18.80;36.20;;;;;;5054635;28;20466;-81
2021/03/26 12:17:31;;;;;;;21.73;9.23;;;18.90;35.70;;;;;;5054757;28;20036;-80
2021/03/26 12:20:07;;;;;;;21.48;9.65;;;18.90;35.80;;;;;;5053738;28;20032;-80
2021/03/26 12:22:46;;;;;;;27.95;11.07;;;19.00;35.80;;;;;;5054504;28;20051;-80
2021/03/26 12:25:23;;;;;;;20.58;10.07;;;19.00;35.30;;;;;;5053379;28;20021;-80
2021/03/26 12:27:54;;;;;;;18.08;9.82;;;19.10;34.70;;;;;;5068479;28;20028;-81
2021/03/26 12:30:27;;;;;;;24.70;10.98;;;19.10;35.10;;;;;;5074107;28;20021;-80
2021/03/26 12:33:04;;;;;;;24.00;10.65;;;19.20;34.60;;;;;;5074383;28;20023;-80
2021/03/26 12:35:38;;;;;;;22.55;10.40;;;19.20;33.60;;;;;;5072743;28;20029;-80
2021/03/26 12:38:04;;;;;;;20.52;9.38;;;19.30;33.20;;;;;;5074070;28;20535;-80
2021/03/26 12:40:39;;;;;;;23.23;10.57;;;19.30;34.00;;;;;;5072714;28;20052;-80
2021/03/26 12:43:11;;;;;;;25.08;10.27;;;19.30;33.00;;;;;;5072491;28;20386;-80
2021/03/26 12:45:43;;;;;;;26.10;10.75;;;19.40;33.30;;;;;;5073753;28;20428;-80
2021/03/26 12:48:49;;;;;;;22.88;10.05;;;19.40;33.70;;;;;;5072602;28;20101;-81
2021/03/26 12:51:42;;;;;;;24.42;11.13;;;19.40;33.80;;;;;;5073092;28;20409;-80
2021/03/26 12:54:32;;;;;;;21.42;10.52;;;19.50;33.50;;;;;;5073702;28;20470;-80
2021/03/26 12:57:13;;;;;;;18.50;10.55;;;19.60;33.00;;;;;;5072630;28;20025;-80
2021/03/26 12:59:56;;;;;;;22.25;10.38;;;19.70;32.90;;;;;;5072460;28;20044;-80
2021/03/26 13:02:40;;;;;;;16.88;9.35;;;19.70;32.30;;;;;;5072500;28;20025;-80
2021/03/26 13:05:30;;;;;;;23.42;10.68;;;19.80;32.30;;;;;;5073493;28;20020;-81
2021/03/26 13:07:58;;;;;;;18.65;9.25;;;19.80;31.90;;;;;;5073571;28;20038;-81
2021/03/26 13:11:03;;;;;;;21.10;9.70;;;19.90;31.70;;;;;;5072471;28;20497;-80
2021/03/26 13:13:41;;;;;;;25.58;10.15;;;19.90;31.00;;;;;;5069201;28;20559;-80
2021/03/26 13:16:22;;;;;;;19.75;9.27;;;20.00;31.40;;;;;;5073393;28;20020;-81
2021/03/26 13:18:59;;;;;;;18.92;9.15;;;20.00;30.60;;;;;;5072015;28;20036;-80
2021/03/26 13:21:28;;;;;;;15.05;7.95;;;20.10;30.00;;;;;;5073790;28;20478;-80
2021/03/26 13:24:16;;;;;;;22.77;8.88;;;20.10;30.00;;;;;;5072248;28;20086;-81
2021/03/26 13:26:42;;;;;;;14.60;7.50;;;20.20;30.00;;;;;;5053915;28;20037;-81
2021/03/26 13:29:24;;;;;;;15.20;7.95;;;20.30;29.70;;;;;;5053401;28;20074;-81
2021/03/26 13:31:53;;;;;;;14.68;7.85;;;20.30;29.50;;;;;;5053109;28;20029;-80
2021/03/26 13:34:19;;;;;;;20.02;7.88;;;20.40;29.50;;;;;;5052281;28;20029;-80
2021/03/26 13:36:47;;;;;;;21.92;9.30;;;20.40;29.10;;;;;;5051830;28;20025;-81
2021/03/26 13:39:16;;;;;;;14.27;7.68;;;20.40;28.80;;;;;;5052934;28;20032;-81
2021/03/26 13:42:03;;;;;;;12.23;6.57;;;20.40;28.90;;;;;;5051936;28;20025;-80